sensor_id;sensor_type;location;lat;lon;timestamp;temperature;humidity
8537;DHT22;4306;50.210;10.628;2023-04-01T00:01:27;8.70;99.90
8537;DHT22;4306;50.210;10.628;2023-04-01T00:03:54;8.70;99.90
8537;DHT22;4306;50.210;10.628;2023-04-01T00:06:22;8.70;99.90
8537;DHT22;4306;50.210;10.628;2023-04-01T00:08:49;8.70;99.90
8537;DHT22;4306;50.210;10.628;2023-04-01T00:11:16;8.70;99.90
8537;DHT22;4306;50.210;10.628;2023-04-01T00:13:45;8.70;99.90
8537;DHT22;4306;50.210;10.628;2023-04-01T00:16:12;8.70;99.90
8537;DHT22;4306;50.210;10.628;2023-04-01T00:18:40;8.60;99.90
8537;DHT22;4306;50.210;10.628;2023-04-01T00:21:07;8.60;99.90
8537;DHT22;4306;50.210;10.628;2023-04-01T00:23:34;8.60;99.90
8537;DHT22;4306;50.210;10.628;2023-04-01T00:26:02;8.60;99.90
8537;DHT22;4306;50.210;10.628;2023-04-01T00:28:29;8.60;99.90
8537;DHT22;4306;50.210;10.628;2023-04-01T00:30:57;8.60;99.90
8537;DHT22;4306;50.210;10.628;2023-04-01T00:33:24;8.60;99.90
8537;DHT22;4306;50.210;10.628;2023-04-01T00:35:53;8.70;99.90
8537;DHT22;4306;50.210;10.628;2023-04-01T00:38:19;8.50;99.90
8537;DHT22;4306;50.210;10.628;2023-04-01T00:40:47;8.60;99.90
8537;DHT22;4306;50.210;10.628;2023-04-01T00:43:16;8.60;99.90
8537;DHT22;4306;50.210;10.628;2023-04-01T00:45:46;8.60;99.90
8537;DHT22;4306;50.210;10.628;2023-04-01T00:48:16;8.60;99.90
8537;DHT22;4306;50.210;10.628;2023-04-01T00:50:48;8.60;99.90
8537;DHT22;4306;50.210;10.628;2023-04-01T00:53:16;8.60;99.90
8537;DHT22;4306;50.210;10.628;2023-04-01T00:55:50;8.70;99.90
8537;DHT22;4306;50.210;10.628;2023-04-01T00:58:20;8.70;99.90
8537;DHT22;4306;50.210;10.628;2023-04-01T01:00:49;8.60;99.90
8537;DHT22;4306;50.210;10.628;2023-04-01T01:03:18;8.70;99.90
8537;DHT22;4306;50.210;10.628;2023-04-01T01:06:06;8.70;99.90
8537;DHT22;4306;50.210;10.628;2023-04-01T01:08:47;8.60;99.90
8537;DHT22;4306;50.210;10.628;2023-04-01T01:11:20;8.70;99.90
8537;DHT22;4306;50.210;10.628;2023-04-01T01:13:53;8.70;99.90
8537;DHT22;4306;50.210;10.628;2023-04-01T01:16:26;8.70;99.90
8537;DHT22;4306;50.210;10.628;2023-04-01T01:19:01;8.70;99.90
8537;DHT22;4306;50.210;10.628;2023-04-01T01:21:54;8.70;99.90
8537;DHT22;4306;50.210;10.628;2023-04-01T01:24:35;8.70;99.90
8537;DHT22;4306;50.210;10.628;2023-04-01T01:27:08;8.70;99.90
8537;DHT22;4306;50.210;10.628;2023-04-01T01:29:50;8.60;99.90
8537;DHT22;4306;50.210;10.628;2023-04-01T01:32:32;8.60;99.90
8537;DHT22;4306;50.210;10.628;2023-04-01T01:35:19;8.60;99.90
8537;DHT22;4306;50.210;10.628;2023-04-01T01:37:47;8.70;99.90
8537;DHT22;4306;50.210;10.628;2023-04-01T01:40:17;8.70;99.90
8537;DHT22;4306;50.210;10.628;2023-04-01T01:42:48;8.70;99.90
8537;DHT22;4306;50.210;10.628;2023-04-01T01:45:18;8.70;99.90
8537;DHT22;4306;50.210;10.628;2023-04-01T01:47:46;8.70;99.90
8537;DHT22;4306;50.210;10.628;2023-04-01T01:50:16;8.70;99.90
8537;DHT22;4306;50.210;10.628;2023-04-01T01:52:43;8.70;99.90
8537;DHT22;4306;50.210;10.628;2023-04-01T01:55:26;8.70;99.90
8537;DHT22;4306;50.210;10.628;2023-04-01T01:57:53;8.70;99.90
8537;DHT22;4306;50.210;10.628;2023-04-01T02:00:22;8.70;99.90
8537;DHT22;4306;50.210;10.628;2023-04-01T02:02:50;8.70;99.90
8537;DHT22;4306;50.210;10.628;2023-04-01T02:05:20;8.70;99.90
8537;DHT22;4306;50.210;10.628;2023-04-01T02:07:51;8.70;99.90
8537;DHT22;4306;50.210;10.628;2023-04-01T02:10:22;8.70;99.90
8537;DHT22;4306;50.210;10.628;2023-04-01T02:12:52;8.70;99.90
8537;DHT22;4306;50.210;10.628;2023-04-01T02:15:21;8.70;99.90
8537;DHT22;4306;50.210;10.628;2023-04-01T02:17:49;8.70;99.90
8537;DHT22;4306;50.210;10.628;2023-04-01T02:20:20;8.70;99.90
8537;DHT22;4306;50.210;10.628;2023-04-01T02:22:51;8.70;99.90
8537;DHT22;4306;50.210;10.628;2023-04-01T02:25:20;8.70;99.90
8537;DHT22;4306;50.210;10.628;2023-04-01T02:27:48;8.70;99.90
8537;DHT22;4306;50.210;10.628;2023-04-01T02:30:16;8.70;99.90
8537;DHT22;4306;50.210;10.628;2023-04-01T02:32:44;8.70;99.90
8537;DHT22;4306;50.210;10.628;2023-04-01T02:35:13;8.70;99.90
8537;DHT22;4306;50.210;10.628;2023-04-01T02:37:43;8.70;99.90
8537;DHT22;4306;50.210;10.628;2023-04-01T02:40:12;8.70;99.90
8537;DHT22;4306;50.210;10.628;2023-04-01T02:42:39;8.70;99.90
8537;DHT22;4306;50.210;10.628;2023-04-01T02:45:08;8.70;99.90
8537;DHT22;4306;50.210;10.628;2023-04-01T02:47:35;8.70;99.90
8537;DHT22;4306;50.210;10.628;2023-04-01T02:50:02;8.70;99.90
8537;DHT22;4306;50.210;10.628;2023-04-01T02:52:29;8.70;99.90
8537;DHT22;4306;50.210;10.628;2023-04-01T02:54:58;8.70;99.90
8537;DHT22;4306;50.210;10.628;2023-04-01T02:57:25;8.70;99.90
8537;DHT22;4306;50.210;10.628;2023-04-01T02:59:52;8.70;99.90
8537;DHT22;4306;50.210;10.628;2023-04-01T03:02:19;8.60;99.90
8537;DHT22;4306;50.210;10.628;2023-04-01T03:04:45;8.70;99.90
8537;DHT22;4306;50.210;10.628;2023-04-01T03:07:12;8.70;99.90
8537;DHT22;4306;50.210;10.628;2023-04-01T03:09:39;8.60;99.90
8537;DHT22;4306;50.210;10.628;2023-04-01T03:12:08;8.60;99.90
8537;DHT22;4306;50.210;10.628;2023-04-01T03:14:34;8.50;99.90
8537;DHT22;4306;50.210;10.628;2023-04-01T03:17:01;8.60;99.90
8537;DHT22;4306;50.210;10.628;2023-04-01T03:19:28;8.50;99.90
8537;DHT22;4306;50.210;10.628;2023-04-01T03:21:55;8.50;99.90
8537;DHT22;4306;50.210;10.628;2023-04-01T03:24:22;8.50;99.90
8537;DHT22;4306;50.210;10.628;2023-04-01T03:26:49;8.50;99.90
8537;DHT22;4306;50.210;10.628;2023-04-01T03:29:17;8.50;99.90
8537;DHT22;4306;50.210;10.628;2023-04-01T03:31:44;8.50;99.90
8537;DHT22;4306;50.210;10.628;2023-04-01T03:34:10;8.50;99.90
8537;DHT22;4306;50.210;10.628;2023-04-01T03:36:37;8.40;99.90
8537;DHT22;4306;50.210;10.628;2023-04-01T03:39:04;8.40;99.90
8537;DHT22;4306;50.210;10.628;2023-04-01T03:41:32;8.40;99.90
8537;DHT22;4306;50.210;10.628;2023-04-01T03:43:59;8.40;99.90
8537;DHT22;4306;50.210;10.628;2023-04-01T03:46:27;8.40;99.90
8537;DHT22;4306;50.210;10.628;2023-04-01T03:48:54;8.40;99.90
8537;DHT22;4306;50.210;10.628;2023-04-01T03:51:21;8.50;99.90
8537;DHT22;4306;50.210;10.628;2023-04-01T03:53:48;8.40;99.90
8537;DHT22;4306;50.210;10.628;2023-04-01T03:56:15;8.40;99.90
8537;DHT22;4306;50.210;10.628;2023-04-01T03:58:42;8.40;99.90
8537;DHT22;4306;50.210;10.628;2023-04-01T04:01:17;8.50;99.90
8537;DHT22;4306;50.210;10.628;2023-04-01T04:03:47;8.50;99.90
8537;DHT22;4306;50.210;10.628;2023-04-01T04:06:16;8.40;99.90
8537;DHT22;4306;50.210;10.628;2023-04-01T04:08:43;8.50;99.90
8537;DHT22;4306;50.210;10.628;2023-04-01T04:11:11;8.50;99.90
8537;DHT22;4306;50.210;10.628;2023-04-01T04:13:38;8.40;99.90
8537;DHT22;4306;50.210;10.628;2023-04-01T04:16:05;8.50;99.90
8537;DHT22;4306;50.210;10.628;2023-04-01T04:18:32;8.50;99.90
8537;DHT22;4306;50.210;10.628;2023-04-01T04:21:00;8.40;99.90
8537;DHT22;4306;50.210;10.628;2023-04-01T04:23:27;8.50;99.90
8537;DHT22;4306;50.210;10.628;2023-04-01T04:25:56;8.50;99.90
8537;DHT22;4306;50.210;10.628;2023-04-01T04:28:24;8.50;99.90
8537;DHT22;4306;50.210;10.628;2023-04-01T04:30:51;8.50;99.90
8537;DHT22;4306;50.210;10.628;2023-04-01T04:33:18;8.40;99.90
8537;DHT22;4306;50.210;10.628;2023-04-01T04:35:45;8.40;99.90
8537;DHT22;4306;50.210;10.628;2023-04-01T04:38:14;8.40;99.90
8537;DHT22;4306;50.210;10.628;2023-04-01T04:40:41;8.40;99.90
8537;DHT22;4306;50.210;10.628;2023-04-01T04:43:10;8.50;99.90
8537;DHT22;4306;50.210;10.628;2023-04-01T04:45:37;8.40;99.90
8537;DHT22;4306;50.210;10.628;2023-04-01T04:48:04;8.50;99.90
8537;DHT22;4306;50.210;10.628;2023-04-01T04:50:31;8.50;99.90
8537;DHT22;4306;50.210;10.628;2023-04-01T04:52:58;8.50;99.90
8537;DHT22;4306;50.210;10.628;2023-04-01T04:55:27;8.50;99.90
8537;DHT22;4306;50.210;10.628;2023-04-01T04:57:54;8.40;99.90
8537;DHT22;4306;50.210;10.628;2023-04-01T05:00:21;8.40;99.90
8537;DHT22;4306;50.210;10.628;2023-04-01T05:02:47;8.50;99.90
8537;DHT22;4306;50.210;10.628;2023-04-01T05:05:14;8.50;99.90
8537;DHT22;4306;50.210;10.628;2023-04-01T05:07:41;8.50;99.90
8537;DHT22;4306;50.210;10.628;2023-04-01T05:10:09;8.50;99.90
8537;DHT22;4306;50.210;10.628;2023-04-01T05:12:37;8.50;99.90
8537;DHT22;4306;50.210;10.628;2023-04-01T05:15:05;8.50;99.90
8537;DHT22;4306;50.210;10.628;2023-04-01T05:17:32;8.50;99.90
8537;DHT22;4306;50.210;10.628;2023-04-01T05:19:59;8.50;99.90
8537;DHT22;4306;50.210;10.628;2023-04-01T05:22:26;8.50;99.90
8537;DHT22;4306;50.210;10.628;2023-04-01T05:24:53;8.50;99.90
8537;DHT22;4306;50.210;10.628;2023-04-01T05:27:20;8.50;99.90
8537;DHT22;4306;50.210;10.628;2023-04-01T05:29:48;8.50;99.90
8537;DHT22;4306;50.210;10.628;2023-04-01T05:32:15;8.60;99.90
8537;DHT22;4306;50.210;10.628;2023-04-01T05:34:42;8.60;99.90
8537;DHT22;4306;50.210;10.628;2023-04-01T05:37:09;8.60;99.90
8537;DHT22;4306;50.210;10.628;2023-04-01T05:39:37;8.60;99.90
8537;DHT22;4306;50.210;10.628;2023-04-01T05:42:06;8.60;99.90
8537;DHT22;4306;50.210;10.628;2023-04-01T05:44:33;8.60;99.90
8537;DHT22;4306;50.210;10.628;2023-04-01T05:47:01;8.60;99.90
8537;DHT22;4306;50.210;10.628;2023-04-01T05:49:28;8.60;99.90
8537;DHT22;4306;50.210;10.628;2023-04-01T05:51:55;8.60;99.90
8537;DHT22;4306;50.210;10.628;2023-04-01T05:54:22;8.60;99.90
8537;DHT22;4306;50.210;10.628;2023-04-01T05:56:49;8.60;99.90
8537;DHT22;4306;50.210;10.628;2023-04-01T05:59:16;8.70;99.90
8537;DHT22;4306;50.210;10.628;2023-04-01T06:01:43;8.70;99.90
8537;DHT22;4306;50.210;10.628;2023-04-01T06:04:13;8.70;99.90
8537;DHT22;4306;50.210;10.628;2023-04-01T06:06:42;8.70;99.90
8537;DHT22;4306;50.210;10.628;2023-04-01T06:09:14;8.80;99.90
8537;DHT22;4306;50.210;10.628;2023-04-01T06:11:51;8.80;99.90
8537;DHT22;4306;50.210;10.628;2023-04-01T06:14:30;8.80;99.90
8537;DHT22;4306;50.210;10.628;2023-04-01T06:17:08;8.80;99.90
8537;DHT22;4306;50.210;10.628;2023-04-01T06:19:47;8.80;99.90
8537;DHT22;4306;50.210;10.628;2023-04-01T06:22:49;8.90;99.90
8537;DHT22;4306;50.210;10.628;2023-04-01T06:25:32;9.00;99.90
8537;DHT22;4306;50.210;10.628;2023-04-01T06:28:30;9.00;99.90
8537;DHT22;4306;50.210;10.628;2023-04-01T06:31:06;9.10;99.90
8537;DHT22;4306;50.210;10.628;2023-04-01T06:33:52;9.20;99.90
8537;DHT22;4306;50.210;10.628;2023-04-01T06:39:37;9.20;99.90
8537;DHT22;4306;50.210;10.628;2023-04-01T06:42:23;9.20;99.90
8537;DHT22;4306;50.210;10.628;2023-04-01T06:45:00;9.30;99.90
8537;DHT22;4306;50.210;10.628;2023-04-01T06:47:40;9.40;99.90
8537;DHT22;4306;50.210;10.628;2023-04-01T06:50:20;9.30;99.90
8537;DHT22;4306;50.210;10.628;2023-04-01T06:52:55;9.40;99.90
8537;DHT22;4306;50.210;10.628;2023-04-01T06:55:28;9.50;99.90
8537;DHT22;4306;50.210;10.628;2023-04-01T06:57:59;9.40;99.90
8537;DHT22;4306;50.210;10.628;2023-04-01T07:00:30;9.40;99.90
8537;DHT22;4306;50.210;10.628;2023-04-01T07:03:05;9.40;99.90
8537;DHT22;4306;50.210;10.628;2023-04-01T07:05:34;9.40;99.90
8537;DHT22;4306;50.210;10.628;2023-04-01T07:08:06;9.50;99.90
8537;DHT22;4306;50.210;10.628;2023-04-01T07:10:42;9.40;99.90
8537;DHT22;4306;50.210;10.628;2023-04-01T07:13:14;9.30;99.90
8537;DHT22;4306;50.210;10.628;2023-04-01T07:15:46;9.20;99.90
8537;DHT22;4306;50.210;10.628;2023-04-01T07:18:18;9.20;99.90
8537;DHT22;4306;50.210;10.628;2023-04-01T07:20:46;9.20;99.90
8537;DHT22;4306;50.210;10.628;2023-04-01T07:23:22;9.20;99.90
8537;DHT22;4306;50.210;10.628;2023-04-01T07:25:53;9.10;99.90
8537;DHT22;4306;50.210;10.628;2023-04-01T07:28:22;9.20;99.90
8537;DHT22;4306;50.210;10.628;2023-04-01T07:30:56;9.20;99.90
8537;DHT22;4306;50.210;10.628;2023-04-01T07:33:33;9.20;99.90
8537;DHT22;4306;50.210;10.628;2023-04-01T07:36:06;9.10;99.90
8537;DHT22;4306;50.210;10.628;2023-04-01T07:38:43;9.10;99.90
8537;DHT22;4306;50.210;10.628;2023-04-01T07:41:18;9.20;99.90
8537;DHT22;4306;50.210;10.628;2023-04-01T07:44:05;9.10;99.90
8537;DHT22;4306;50.210;10.628;2023-04-01T07:49:31;9.30;99.90
8537;DHT22;4306;50.210;10.628;2023-04-01T07:52:05;9.30;99.90
8537;DHT22;4306;50.210;10.628;2023-04-01T07:54:39;9.30;99.90
8537;DHT22;4306;50.210;10.628;2023-04-01T07:57:14;9.30;99.90
8537;DHT22;4306;50.210;10.628;2023-04-01T07:59:49;9.20;99.90
8537;DHT22;4306;50.210;10.628;2023-04-01T08:02:28;9.30;99.90
8537;DHT22;4306;50.210;10.628;2023-04-01T08:05:04;9.40;99.90
8537;DHT22;4306;50.210;10.628;2023-04-01T08:07:42;9.30;99.90
8537;DHT22;4306;50.210;10.628;2023-04-01T08:10:18;9.40;99.90
8537;DHT22;4306;50.210;10.628;2023-04-01T08:12:54;9.40;99.90
8537;DHT22;4306;50.210;10.628;2023-04-01T08:15:28;9.50;99.90
8537;DHT22;4306;50.210;10.628;2023-04-01T08:18:06;9.50;99.90
8537;DHT22;4306;50.210;10.628;2023-04-01T08:20:39;9.60;99.90
8537;DHT22;4306;50.210;10.628;2023-04-01T08:23:13;9.70;99.90
8537;DHT22;4306;50.210;10.628;2023-04-01T08:25:46;9.70;99.90
8537;DHT22;4306;50.210;10.628;2023-04-01T08:28:19;9.70;99.90
8537;DHT22;4306;50.210;10.628;2023-04-01T08:30:51;9.70;99.90
8537;DHT22;4306;50.210;10.628;2023-04-01T08:33:23;9.70;99.90
8537;DHT22;4306;50.210;10.628;2023-04-01T08:35:54;9.60;99.90
8537;DHT22;4306;50.210;10.628;2023-04-01T08:38:26;9.70;99.90
8537;DHT22;4306;50.210;10.628;2023-04-01T08:40:59;9.80;99.90
8537;DHT22;4306;50.210;10.628;2023-04-01T08:44:04;9.70;99.90
8537;DHT22;4306;50.210;10.628;2023-04-01T08:49:56;9.70;99.90
8537;DHT22;4306;50.210;10.628;2023-04-01T08:52:34;9.70;99.90
8537;DHT22;4306;50.210;10.628;2023-04-01T08:55:23;9.70;99.90
8537;DHT22;4306;50.210;10.628;2023-04-01T08:58:11;9.80;99.90
8537;DHT22;4306;50.210;10.628;2023-04-01T09:00:47;9.80;99.90
8537;DHT22;4306;50.210;10.628;2023-04-01T09:03:33;9.70;99.90
8537;DHT22;4306;50.210;10.628;2023-04-01T09:12:42;9.70;99.90
8537;DHT22;4306;50.210;10.628;2023-04-01T09:15:42;9.80;99.90
8537;DHT22;4306;50.210;10.628;2023-04-01T09:18:43;9.70;99.90
8537;DHT22;4306;50.210;10.628;2023-04-01T09:21:35;9.70;99.90
8537;DHT22;4306;50.210;10.628;2023-04-01T09:24:30;9.80;99.90
8537;DHT22;4306;50.210;10.628;2023-04-01T09:27:05;9.70;99.90
8537;DHT22;4306;50.210;10.628;2023-04-01T09:33:06;9.50;99.90
8537;DHT22;4306;50.210;10.628;2023-04-01T09:35:45;9.60;99.90
8537;DHT22;4306;50.210;10.628;2023-04-01T09:38:21;9.60;99.90
8537;DHT22;4306;50.210;10.628;2023-04-01T09:40:54;9.70;99.90
8537;DHT22;4306;50.210;10.628;2023-04-01T09:43:26;9.70;99.90
8537;DHT22;4306;50.210;10.628;2023-04-01T09:46:19;9.70;99.90
8537;DHT22;4306;50.210;10.628;2023-04-01T09:49:18;9.60;99.90
8537;DHT22;4306;50.210;10.628;2023-04-01T09:51:57;9.70;99.90
8537;DHT22;4306;50.210;10.628;2023-04-01T09:54:58;9.70;99.90
8537;DHT22;4306;50.210;10.628;2023-04-01T10:00:53;9.80;99.90
8537;DHT22;4306;50.210;10.628;2023-04-01T10:10:28;9.90;99.90
8537;DHT22;4306;50.210;10.628;2023-04-01T10:16:20;9.90;99.90
8537;DHT22;4306;50.210;10.628;2023-04-01T10:19:21;9.80;99.90
8537;DHT22;4306;50.210;10.628;2023-04-01T10:22:17;9.80;99.90
8537;DHT22;4306;50.210;10.628;2023-04-01T10:25:07;9.70;99.90
8537;DHT22;4306;50.210;10.628;2023-04-01T10:27:59;9.80;99.90
8537;DHT22;4306;50.210;10.628;2023-04-01T10:36:46;9.70;99.90
8537;DHT22;4306;50.210;10.628;2023-04-01T10:39:34;9.60;99.90
8537;DHT22;4306;50.210;10.628;2023-04-01T10:42:41;9.60;99.90
8537;DHT22;4306;50.210;10.628;2023-04-01T10:45:49;9.60;99.90
8537;DHT22;4306;50.210;10.628;2023-04-01T10:51:17;9.60;99.90
8537;DHT22;4306;50.210;10.628;2023-04-01T10:53:52;9.70;99.90
8537;DHT22;4306;50.210;10.628;2023-04-01T10:56:42;9.70;99.90
8537;DHT22;4306;50.210;10.628;2023-04-01T11:05:58;9.80;99.90
8537;DHT22;4306;50.210;10.628;2023-04-01T11:09:03;9.80;99.90
8537;DHT22;4306;50.210;10.628;2023-04-01T11:24:14;9.80;99.90
8537;DHT22;4306;50.210;10.628;2023-04-01T11:26:52;9.80;99.90
8537;DHT22;4306;50.210;10.628;2023-04-01T11:29:37;9.80;99.90
8537;DHT22;4306;50.210;10.628;2023-04-01T11:32:14;9.90;99.90
8537;DHT22;4306;50.210;10.628;2023-04-01T11:35:00;9.90;99.90
8537;DHT22;4306;50.210;10.628;2023-04-01T11:37:38;10.00;99.90
8537;DHT22;4306;50.210;10.628;2023-04-01T11:40:22;10.00;99.90
8537;DHT22;4306;50.210;10.628;2023-04-01T11:42:58;10.10;99.90
8537;DHT22;4306;50.210;10.628;2023-04-01T11:45:35;10.30;99.90
8537;DHT22;4306;50.210;10.628;2023-04-01T11:48:22;10.30;99.90
8537;DHT22;4306;50.210;10.628;2023-04-01T11:51:09;10.40;99.90
8537;DHT22;4306;50.210;10.628;2023-04-01T11:53:47;10.50;99.90
8537;DHT22;4306;50.210;10.628;2023-04-01T11:56:31;10.60;99.90
8537;DHT22;4306;50.210;10.628;2023-04-01T11:59:20;10.50;99.90
8537;DHT22;4306;50.210;10.628;2023-04-01T12:01:59;10.60;99.90
8537;DHT22;4306;50.210;10.628;2023-04-01T12:04:54;10.60;99.90
8537;DHT22;4306;50.210;10.628;2023-04-01T12:07:45;10.60;99.90
8537;DHT22;4306;50.210;10.628;2023-04-01T12:10:18;10.60;99.90
8537;DHT22;4306;50.210;10.628;2023-04-01T12:12:54;10.70;99.90
8537;DHT22;4306;50.210;10.628;2023-04-01T12:15:30;10.80;99.90
8537;DHT22;4306;50.210;10.628;2023-04-01T12:18:08;10.90;99.90
8537;DHT22;4306;50.210;10.628;2023-04-01T12:20:46;11.10;99.90
8537;DHT22;4306;50.210;10.628;2023-04-01T12:23:31;11.10;99.90
8537;DHT22;4306;50.210;10.628;2023-04-01T12:26:27;11.10;99.90
8537;DHT22;4306;50.210;10.628;2023-04-01T12:29:23;11.20;99.90
8537;DHT22;4306;50.210;10.628;2023-04-01T12:31:59;11.30;99.90
8537;DHT22;4306;50.210;10.628;2023-04-01T12:34:41;11.40;99.90
8537;DHT22;4306;50.210;10.628;2023-04-01T12:37:17;11.40;99.90
8537;DHT22;4306;50.210;10.628;2023-04-01T12:39:55;11.40;99.90
8537;DHT22;4306;50.210;10.628;2023-04-01T12:42:40;11.40;99.90
8537;DHT22;4306;50.210;10.628;2023-04-01T12:45:33;11.30;99.90
8537;DHT22;4306;50.210;10.628;2023-04-01T12:48:28;11.40;99.90
8537;DHT22;4306;50.210;10.628;2023-04-01T12:51:12;11.50;99.90
8537;DHT22;4306;50.210;10.628;2023-04-01T12:53:58;11.50;99.90
8537;DHT22;4306;50.210;10.628;2023-04-01T12:56:36;11.20;99.90
8537;DHT22;4306;50.210;10.628;2023-04-01T12:59:23;11.30;99.90
8537;DHT22;4306;50.210;10.628;2023-04-01T13:02:12;11.40;99.90
8537;DHT22;4306;50.210;10.628;2023-04-01T13:05:01;11.20;99.90
8537;DHT22;4306;50.210;10.628;2023-04-01T13:07:57;11.30;99.90
8537;DHT22;4306;50.210;10.628;2023-04-01T13:10:36;11.40;99.90
8537;DHT22;4306;50.210;10.628;2023-04-01T13:19:42;11.50;99.90
8537;DHT22;4306;50.210;10.628;2023-04-01T13:22:14;11.40;99.90
8537;DHT22;4306;50.210;10.628;2023-04-01T13:24:50;11.30;99.90
8537;DHT22;4306;50.210;10.628;2023-04-01T13:27:21;11.30;99.90
8537;DHT22;4306;50.210;10.628;2023-04-01T13:30:02;11.40;99.90
8537;DHT22;4306;50.210;10.628;2023-04-01T13:32:39;11.30;99.90
8537;DHT22;4306;50.210;10.628;2023-04-01T13:35:26;11.20;99.90
8537;DHT22;4306;50.210;10.628;2023-04-01T13:40:52;11.20;99.90
8537;DHT22;4306;50.210;10.628;2023-04-01T13:43:27;11.10;99.90
8537;DHT22;4306;50.210;10.628;2023-04-01T13:46:18;10.80;99.90
8537;DHT22;4306;50.210;10.628;2023-04-01T13:49:26;10.90;99.90
8537;DHT22;4306;50.210;10.628;2023-04-01T13:52:22;10.90;99.90
8537;DHT22;4306;50.210;10.628;2023-04-01T13:55:07;10.90;99.90
8537;DHT22;4306;50.210;10.628;2023-04-01T13:57:53;10.90;99.90
8537;DHT22;4306;50.210;10.628;2023-04-01T14:00:35;10.90;99.90
8537;DHT22;4306;50.210;10.628;2023-04-01T14:03:32;10.80;99.90
8537;DHT22;4306;50.210;10.628;2023-04-01T14:06:16;10.80;99.90
8537;DHT22;4306;50.210;10.628;2023-04-01T14:09:11;10.70;99.90
8537;DHT22;4306;50.210;10.628;2023-04-01T14:11:49;10.70;99.90
8537;DHT22;4306;50.210;10.628;2023-04-01T14:14:24;10.80;99.90
8537;DHT22;4306;50.210;10.628;2023-04-01T14:17:24;10.70;99.90
8537;DHT22;4306;50.210;10.628;2023-04-01T14:20:29;10.80;99.90
8537;DHT22;4306;50.210;10.628;2023-04-01T14:23:13;10.70;99.90
8537;DHT22;4306;50.210;10.628;2023-04-01T14:26:03;10.80;99.90
8537;DHT22;4306;50.210;10.628;2023-04-01T14:28:42;10.70;99.90
8537;DHT22;4306;50.210;10.628;2023-04-01T14:31:37;10.70;99.90
8537;DHT22;4306;50.210;10.628;2023-04-01T14:34:20;10.80;99.90
8537;DHT22;4306;50.210;10.628;2023-04-01T14:36:56;10.70;99.90
8537;DHT22;4306;50.210;10.628;2023-04-01T14:39:49;10.80;99.90
8537;DHT22;4306;50.210;10.628;2023-04-01T14:42:44;10.90;99.90
8537;DHT22;4306;50.210;10.628;2023-04-01T14:45:36;10.60;99.90
8537;DHT22;4306;50.210;10.628;2023-04-01T14:48:15;10.50;99.90
8537;DHT22;4306;50.210;10.628;2023-04-01T14:50:46;10.30;99.90
8537;DHT22;4306;50.210;10.628;2023-04-01T14:53:26;10.50;99.90
8537;DHT22;4306;50.210;10.628;2023-04-01T14:55:55;10.50;99.90
8537;DHT22;4306;50.210;10.628;2023-04-01T14:58:24;10.50;99.90
8537;DHT22;4306;50.210;10.628;2023-04-01T15:01:00;10.60;99.90
8537;DHT22;4306;50.210;10.628;2023-04-01T15:03:39;10.60;99.90
8537;DHT22;4306;50.210;10.628;2023-04-01T15:06:27;10.60;99.90
8537;DHT22;4306;50.210;10.628;2023-04-01T15:09:01;10.70;99.90
8537;DHT22;4306;50.210;10.628;2023-04-01T15:11:42;10.70;99.90
8537;DHT22;4306;50.210;10.628;2023-04-01T15:14:35;10.70;99.90
8537;DHT22;4306;50.210;10.628;2023-04-01T15:17:19;10.60;99.90
8537;DHT22;4306;50.210;10.628;2023-04-01T15:20:02;10.60;99.90
8537;DHT22;4306;50.210;10.628;2023-04-01T15:22:44;10.60;99.90
8537;DHT22;4306;50.210;10.628;2023-04-01T15:25:26;10.60;99.90
8537;DHT22;4306;50.210;10.628;2023-04-01T15:28:03;10.60;99.90
8537;DHT22;4306;50.210;10.628;2023-04-01T15:30:36;10.50;99.90
8537;DHT22;4306;50.210;10.628;2023-04-01T15:33:26;10.50;99.90
8537;DHT22;4306;50.210;10.628;2023-04-01T15:36:02;10.50;99.90
8537;DHT22;4306;50.210;10.628;2023-04-01T15:38:38;10.50;99.90
8537;DHT22;4306;50.210;10.628;2023-04-01T15:41:14;10.50;99.90
8537;DHT22;4306;50.210;10.628;2023-04-01T15:43:43;10.50;99.90
8537;DHT22;4306;50.210;10.628;2023-04-01T15:46:30;10.50;99.90
8537;DHT22;4306;50.210;10.628;2023-04-01T15:49:10;10.50;99.90
8537;DHT22;4306;50.210;10.628;2023-04-01T15:51:48;10.60;99.90
8537;DHT22;4306;50.210;10.628;2023-04-01T15:54:38;10.60;99.90
8537;DHT22;4306;50.210;10.628;2023-04-01T15:57:14;10.70;99.90
8537;DHT22;4306;50.210;10.628;2023-04-01T15:59:53;10.70;99.90
8537;DHT22;4306;50.210;10.628;2023-04-01T16:02:31;10.60;99.90
8537;DHT22;4306;50.210;10.628;2023-04-01T16:05:00;10.60;99.90
8537;DHT22;4306;50.210;10.628;2023-04-01T16:07:47;10.70;99.90
8537;DHT22;4306;50.210;10.628;2023-04-01T16:13:42;10.70;99.90
8537;DHT22;4306;50.210;10.628;2023-04-01T16:16:19;10.60;99.90
8537;DHT22;4306;50.210;10.628;2023-04-01T16:19:12;10.50;99.90
8537;DHT22;4306;50.210;10.628;2023-04-01T16:21:48;10.60;99.90
8537;DHT22;4306;50.210;10.628;2023-04-01T16:24:22;10.50;99.90
8537;DHT22;4306;50.210;10.628;2023-04-01T16:26:55;10.40;99.90
8537;DHT22;4306;50.210;10.628;2023-04-01T16:29:27;10.40;99.90
8537;DHT22;4306;50.210;10.628;2023-04-01T16:32:09;10.40;99.90
8537;DHT22;4306;50.210;10.628;2023-04-01T16:34:44;10.40;99.90
8537;DHT22;4306;50.210;10.628;2023-04-01T16:37:16;10.30;99.90
8537;DHT22;4306;50.210;10.628;2023-04-01T16:39:49;10.40;99.90
8537;DHT22;4306;50.210;10.628;2023-04-01T16:42:32;10.30;99.90
8537;DHT22;4306;50.210;10.628;2023-04-01T16:45:06;10.30;99.90
8537;DHT22;4306;50.210;10.628;2023-04-01T16:47:47;10.30;99.90
8537;DHT22;4306;50.210;10.628;2023-04-01T16:50:19;10.20;99.90
8537;DHT22;4306;50.210;10.628;2023-04-01T16:52:58;10.30;99.90
8537;DHT22;4306;50.210;10.628;2023-04-01T16:55:35;10.20;99.90
8537;DHT22;4306;50.210;10.628;2023-04-01T16:58:10;10.30;99.90
8537;DHT22;4306;50.210;10.628;2023-04-01T17:00:47;10.30;99.90
8537;DHT22;4306;50.210;10.628;2023-04-01T17:03:18;10.30;99.90
8537;DHT22;4306;50.210;10.628;2023-04-01T17:06:14;10.30;99.90
8537;DHT22;4306;50.210;10.628;2023-04-01T17:08:51;10.30;99.90
8537;DHT22;4306;50.210;10.628;2023-04-01T17:11:24;10.10;99.90
8537;DHT22;4306;50.210;10.628;2023-04-01T17:14:01;10.00;99.90
8537;DHT22;4306;50.210;10.628;2023-04-01T17:16:54;10.10;99.90
8537;DHT22;4306;50.210;10.628;2023-04-01T17:19:36;10.10;99.90
8537;DHT22;4306;50.210;10.628;2023-04-01T17:22:17;10.10;99.90
8537;DHT22;4306;50.210;10.628;2023-04-01T17:24:58;10.10;99.90
8537;DHT22;4306;50.210;10.628;2023-04-01T17:27:36;10.10;99.90
8537;DHT22;4306;50.210;10.628;2023-04-01T17:30:27;10.10;99.90
8537;DHT22;4306;50.210;10.628;2023-04-01T17:35:56;10.10;99.90
8537;DHT22;4306;50.210;10.628;2023-04-01T17:38:50;10.00;99.90
8537;DHT22;4306;50.210;10.628;2023-04-01T17:41:28;10.00;99.90
8537;DHT22;4306;50.210;10.628;2023-04-01T17:44:04;9.90;99.90
8537;DHT22;4306;50.210;10.628;2023-04-01T17:46:57;9.80;99.90
8537;DHT22;4306;50.210;10.628;2023-04-01T17:49:30;9.80;99.90
8537;DHT22;4306;50.210;10.628;2023-04-01T17:52:03;9.80;99.90
8537;DHT22;4306;50.210;10.628;2023-04-01T17:54:39;9.80;99.90
8537;DHT22;4306;50.210;10.628;2023-04-01T17:57:37;9.80;99.90
8537;DHT22;4306;50.210;10.628;2023-04-01T18:00:22;9.80;99.90
8537;DHT22;4306;50.210;10.628;2023-04-01T18:03:00;9.80;99.90
8537;DHT22;4306;50.210;10.628;2023-04-01T18:05:45;9.80;99.90
8537;DHT22;4306;50.210;10.628;2023-04-01T18:08:38;9.80;99.90
8537;DHT22;4306;50.210;10.628;2023-04-01T18:11:16;9.80;99.90
8537;DHT22;4306;50.210;10.628;2023-04-01T18:13:58;9.80;99.90